Pahrump, Nevada Weather observations

Data are for observation ending at time listed.
 Day   Time    Ave.   Ave.  Ave.  Vector   Max.   Stn.    Total    Solar   Ave.  
  of    of     Air    Rel.  Wind   Wind    Wind   Baro.  Precip.   Rad.    Soil  
Year   Day     Temp.  Hum.  Speed  Dir.    Gust   Pres.                    Temp. 
2026   (PST)    F      %     mph   deg.    mph     mb.     in.     W/m2     F   
------------------------------------------------------------------------------
 124    4:00   57.3    49   12.6   144     19.1   914.2    0.00       0    74.4
 124    4:10   57.1    50   11.8   143     20.7   914.3    0.00       0    74.3
 124    4:20   56.9    50    9.4   150     20.1   914.2    0.00       0    74.1
 124    4:30   57.0    50    8.8   160     15.5   914.2    0.00       0    74.0
 124    4:40   57.3    49    8.4   156     16.0   914.4    0.00       0    73.9
 124    4:50   56.7    50   10.7   150     18.6   914.5    0.00       1    73.7
 124    5:00   56.4    51    8.0   159     15.9   914.7    0.00       4    73.6
 124    5:10   56.1    52    5.8   164     11.0   914.8    0.00       7    73.5
 124    5:20   56.1    53    6.5   172     14.1   914.8    0.00      14    73.4
 124    5:30   56.3    53    7.6   182     15.8   914.7    0.00      47    73.3
 124    5:40   56.8    53    8.5   169     15.0   914.6    0.00      63    73.1
 124    5:50   56.9    53    2.6   152     17.2   914.8    0.00     117    73.0
 124    6:00   57.8    52    0.0   206      0.1   915.0    0.00     131    72.9
 124    6:10   58.0    51    0.5   158     14.0   915.1    0.00     175    72.8
 124    6:20   58.1    51    1.0   144     18.3   915.3    0.00     203    72.7
 124    6:30   56.7    53   10.3   146     20.2   915.5    0.00     193    72.6
 124    6:40   56.7    53   12.1   146     20.8   915.6    0.00     208    72.5
 124    6:50   57.3    52   10.9   144     17.1   915.5    0.00     228    72.4
 124    7:00   57.9    50    7.7   147     17.0   915.7    0.00     290    72.4
 124    7:10   58.4    49    1.7   143     17.0   915.8    0.00     389    72.3
 124    7:20   58.5    48    8.9   143     17.4   915.9    0.00     376    72.3
 124    7:30   59.0    47   11.2   146     18.9   915.9    0.00     351    72.2
 124    7:40   60.0    45    8.0   151     14.6   915.8    0.00     331    72.2
 124    7:50   59.6    45   10.5   155     19.5   915.9    0.00     349    72.1
 124    8:00   60.3    44    9.3   164     15.5   916.1    0.00     325    72.1
 124    8:10   60.3    44    9.3   161     17.0   916.3    0.00     371    72.1
 124    8:20   61.0    43    8.6   168     17.0   916.5    0.00     372    72.1
 124    8:30   60.6    44    9.9   153     16.7   916.6    0.00     396    72.2
 124    8:40   60.6    42   10.1   149     18.3   916.6    0.00     319    72.2
 124    8:50   61.4    41   10.0   163     19.4   916.6    0.00     484    72.3
 124    9:00   61.8    41    9.3   180     17.0   916.8    0.00     471    72.4
 124    9:10   62.1    41    8.9   183     15.9   916.9    0.00     644    72.6
 124    9:20   63.7    39    4.7   168     13.1   916.9    0.00     720    72.7
 124    9:30   63.3    39    0.0   170      0.1   917.1    0.00     694    72.8
 124    9:40   63.9    38    1.7   156     11.6   917.3    0.00     730    73.0
 124    9:50   64.8    37    0.0   218      0.1   917.3    0.00     843    73.2
 124   10:00   65.4    36    2.4   201      8.1   917.4    0.00     732    73.5
 124   10:10   65.4    36    5.1   196     12.1   917.5    0.00     824    73.9
 124   10:20   66.2    33    5.9   192     13.2   917.5    0.00     894    74.3
 124   10:30   67.5    31    6.6   180     14.2   917.5    0.00     906    74.7
 124   10:40   67.7    29    7.9   181     15.4   917.5    0.00     918    75.2
 124   10:50   68.9    26    7.3   163     15.1   917.5    0.00     935    75.7
 124   11:00   68.8    26    8.7   167     17.0   917.5    0.00     862    76.2
 124   11:10   68.5    27    7.4   169     15.7   917.6    0.00     966    76.6
 124   11:20   69.4    26    7.4   172     13.3   917.5    0.00     937    77.1
 124   11:30   69.0    27    6.8   178     14.5   917.5    0.00     904    77.5
 124   11:40   69.5    27    7.9   178     17.7   917.5    0.00     897    77.9
 124   11:50   69.1    28    6.2   185     15.9   917.5    0.00     865    78.3
 124   12:00   69.0    28    3.8   186     13.9   917.4    0.00     866    78.5
 124   12:10   69.2    27    2.1   167     13.7   917.4    0.00     799    78.8
 124   12:20   71.7    24    4.0   163     16.0   917.3    0.00     970    79.1
 124   12:30   71.1    23    8.4   176     17.2   917.3    0.00     935    79.3
 124   12:40   70.9    23    6.8   180     15.1   917.3    0.00     957    79.6
 124   12:50   72.0    22    6.0   182     11.0   917.3    0.00     914    79.8
 124   13:00   71.7    21    5.1   206     11.2   917.4    0.00     919    80.1
 124   13:10   71.8    21    6.6   191     14.8   917.3    0.00     922    80.4
 124   13:20   72.9    20    2.1   174     14.5   917.4    0.00     934    80.7
 124   13:30   71.7    21    5.8   188     15.4   917.3    0.00     909    81.0
 124   13:40   72.3    23    5.4   193     15.7   917.2    0.00     866    81.3
 124   13:50   72.6    22    8.2   179     19.6   917.1    0.00     854    81.6
 124   14:00   72.9    22    5.8   186     11.0   916.9    0.00     794    81.7
 124   14:10   73.2    22    5.1   228     16.8   916.8    0.00     812    81.7
 124   14:20   73.3    21    6.6   185     15.5   916.5    0.00     742    81.6
 124   14:30   74.2    21    5.5   189     17.5   916.4    0.00     683    81.5
 124   14:40   74.6    20    6.4   182     14.6   916.4    0.00     810    81.4
 124   14:50   74.1    20    4.8   226     17.5   916.4    0.00     737    81.2
 124   15:00   74.1    19    6.0   197     14.2   916.3    0.00     698    81.1
 124   15:10   74.1    20    5.7   206     15.1   916.3    0.00     672    81.0
 124   15:20   74.2    20    6.9   205     15.6   916.2    0.00     630    81.1
 124   15:30   72.9    20    5.9   226     13.4   916.2    0.00     603    81.2
 124   15:40   74.0    19    6.2   187     12.3   916.1    0.00     562    81.4
 124   15:50   73.7    20    6.7   204     14.0   916.0    0.00     533    81.6
 124   16:00   73.1    20    5.6   202     12.7   915.9    0.00     498    81.8
 124   16:10   73.3    18    6.6   210     15.9   915.9    0.00     475    82.0
 124   16:20   72.6    18    5.5   225     12.9   915.8    0.00     444    82.1
 124   16:30   72.7    19    4.9   218     10.2   915.9    0.00     407    82.3
 124   16:40   72.2    18    5.1   225     12.9   915.8    0.00     373    82.3
 124   16:50   71.5    18    4.8   236     16.2   915.8    0.00     340    82.4
 124   17:00   71.4    17    4.9   227     12.8   915.7    0.00     307    82.4
 124   17:10   71.1    17    4.9   229     10.2   915.6    0.00     273    82.4
 124   17:20   70.2    18    4.9   223     12.9   915.4    0.00     238    82.4
 124   17:30   70.0    19    4.0   214     10.2   915.4    0.00     204    82.3
 124   17:40   69.4    20    4.9   214     12.2   915.4    0.00     171    82.2
 124   17:50   69.2    20    3.7   214     10.1   915.4    0.00     140    82.0
 124   18:00   69.1    21    3.3   218      7.6   915.3    0.00     109    81.9
 124   18:10   68.3    22    3.4   212     10.0   915.3    0.00      80    81.7
 124   18:20   67.8    23    3.6   210     11.5   915.2    0.00      52    81.6
 124   18:30   66.9    24    4.0   206      9.1   915.1    0.00      20    81.4
 124   18:40   65.9    25    3.1   223      8.1   915.1    0.00       5    81.2
 124   18:50   65.1    26    3.2   214      6.9   915.0    0.00       2    80.9
 124   19:00   64.7    27    2.9   218      7.6   915.0    0.00       0    80.7
 124   19:10   64.3    27    3.0   216      8.3   914.9    0.00       0    80.4
 124   19:20   64.1    28    3.4   216      8.5   914.9    0.00       0    80.1
 124   19:30   63.7    27    3.9   210     10.4   914.9    0.00       0    79.8
 124   19:40   63.3    28    3.0   218      8.4   915.0    0.00       0    79.6
 124   19:50   62.9    29    1.9   208      7.2   915.1    0.00       0    79.4
 124   20:00   62.9    30    3.6   204      7.7   915.3    0.00       0    79.1
 124   20:10   62.6    30    3.0   210      8.0   915.5    0.00       0    78.9
 124   20:20   62.5    31    0.0   207      0.1   915.7    0.00       0    78.6
 124   20:30   62.0    32    0.0   219      0.1   915.8    0.00       0    78.4
 124   20:40   61.7    32    0.0   202      0.1   915.9    0.00       0    78.2
 124   20:50   61.5    33    0.0   201      0.1   915.9    0.00       0    77.9
 124   21:00   61.0    34    0.6   214      4.7   916.0    0.00       0    77.7
 124   21:10   60.7    34    2.5   183      6.0   915.9    0.00       0    77.5
 124   21:20   60.8    34    3.1   165      7.2   915.9    0.00       0    77.3
 124   21:30   60.6    34    3.8   161      8.0   915.9    0.00       0    77.1
 124   21:40   60.4    35    4.7   164     12.2   916.0    0.00       0    76.9
 124   21:50   60.4    36    5.3   174     11.5   916.1    0.00       0    76.7
 124   22:00   60.3    35    6.3   168     12.5   915.9    0.00       0    76.6
 124   22:10   60.0    36    5.4   178     10.4   916.0    0.00       0    76.4
 124   22:20   59.8    36    5.0   170     10.1   916.1    0.00       0    76.2
 124   22:30   59.3    38    5.7   166      9.1   916.2    0.00       0    76.0
 124   22:40   59.0    38    4.9   164      9.8   916.2    0.00       0    75.8
 124   22:50   58.8    37    6.2   162     11.3   916.2    0.00       0    75.7
 124   23:00   58.5    37    5.0   173      9.7   916.2    0.00       0    75.5
 124   23:10   58.0    37    4.1   175      8.1   916.3    0.00       0    75.4
 124   23:20   57.7    39    4.7   181      9.3   916.2    0.00       0    75.2
 124   23:30   57.3    40    3.8   162      6.7   916.2    0.00       0    75.1
 124   23:40   57.0    43    4.1   177      7.7   916.0    0.00       0    74.9
 124   23:50   56.5    44    1.1   206      5.0   916.0    0.00       0    74.8
 125    0:00   56.3    42    2.2   155      4.7   915.8    0.00       0    74.6
 125    0:10   56.0    42    2.3   182      6.1   915.6    0.00       0    74.4
 125    0:20   56.7    41    5.7   183      9.5   915.4    0.00       0    74.3
 125    0:30   56.3    41    6.1   179      9.9   915.3    0.00       0    74.1
 125    0:40   56.5    41    6.7   181     11.5   915.3    0.00       0    74.0
 125    0:50   56.3    42    6.3   173     13.3   915.3    0.00       0    73.8
 125    1:00   55.7    43    4.7   156      8.8   915.3    0.00       0    73.7
 125    1:10   55.7    43    5.9   144     10.7   915.2    0.00       0    73.5
 125    1:20   54.9    44    8.0   140     11.3   915.1    0.00       0    73.4
 125    1:30   55.3    44    6.9   151     13.2   915.0    0.00       0    73.3
 125    1:40   55.9    44    4.9   162      9.7   915.0    0.00       0    73.1
 125    1:50   55.9    45    6.8   169     14.4   915.0    0.00       0    73.0
 125    2:00   55.3    48    8.0   177     14.8   914.9    0.00       0    72.9
 125    2:10   54.7    50    8.6   159     16.1   914.9    0.00       0    72.8
 125    2:20   54.6    51    7.6   163     14.0   914.9    0.00       0    72.6
 125    2:30   54.1    52    7.4   169     14.2   914.8    0.00       0    72.5
 125    2:40   53.7    53    0.7   178      8.0   914.8    0.00       0    72.4
 125    2:50   53.4    53    6.3   169     11.3   914.7    0.00       0    72.3
 125    3:00   53.0    53    7.8   155     12.3   914.7    0.00       0    72.1
 125    3:10   52.9    52    3.8   174      9.6   914.6    0.00       0    72.0
 125    3:20   52.6    52    4.7   182      8.7   914.6    0.00       0    71.9
 125    3:30   52.4    52    2.3   176      6.1   914.6    0.00       0    71.8
 125    3:40   52.7    50    0.2   162      3.9   914.7    0.00       0    71.7
 125    3:50   52.9    50    0.0   207      2.3   914.6    0.00       0    71.6

Return to Pahrump, Nevada graphs page.


Western Regional Climate Center,wrcc@dri.edu